createdAt,value
2023-05-10T00:01:42.816Z,11.20
2023-05-10T00:04:09.949Z,11.15
2023-05-10T00:06:36.880Z,11.48
2023-05-10T00:09:04.551Z,11.41
2023-05-10T00:11:31.564Z,11.37
2023-05-10T00:13:58.410Z,11.05
2023-05-10T00:16:25.463Z,11.13
2023-05-10T00:18:52.305Z,11.04
2023-05-10T00:21:19.183Z,10.99
2023-05-10T00:23:46.059Z,10.85
2023-05-10T00:26:13.004Z,10.59
2023-05-10T00:28:39.995Z,10.36
2023-05-10T00:31:06.917Z,10.13
2023-05-10T00:33:33.897Z,10.35
2023-05-10T00:36:01.177Z,10.28
2023-05-10T00:38:28.094Z,9.98
2023-05-10T00:40:55.035Z,10.08
2023-05-10T00:43:21.939Z,10.01
2023-05-10T00:45:49.518Z,9.97
2023-05-10T00:48:16.429Z,9.96
2023-05-10T00:50:43.358Z,9.78
2023-05-10T00:53:10.674Z,9.93
2023-05-10T00:55:38.372Z,9.91
2023-05-10T00:58:06.089Z,9.39
2023-05-10T01:00:34.439Z,9.82
2023-05-10T01:03:02.389Z,9.70
2023-05-10T01:05:29.472Z,9.89
2023-05-10T01:07:57.234Z,9.94
2023-05-10T01:10:24.185Z,9.97
2023-05-10T01:12:52.002Z,9.99
2023-05-10T01:15:19.861Z,9.93
2023-05-10T01:17:48.536Z,9.99
2023-05-10T01:20:16.336Z,9.87
2023-05-10T01:22:51.081Z,9.97
2023-05-10T01:25:32.938Z,9.99
2023-05-10T01:28:28.041Z,10.07
2023-05-10T01:31:16.742Z,10.09
2023-05-10T01:33:56.154Z,10.13
2023-05-10T01:36:33.885Z,10.20
2023-05-10T01:39:33.336Z,10.27
2023-05-10T01:42:11.465Z,10.35
2023-05-10T01:44:50.256Z,10.41
2023-05-10T01:47:25.437Z,10.41
2023-05-10T01:50:01.928Z,10.49
2023-05-10T01:52:34.584Z,10.59
2023-05-10T01:55:04.087Z,10.43
2023-05-10T01:57:36.358Z,10.63
2023-05-10T02:00:08.812Z,10.73
2023-05-10T02:02:43.114Z,10.72
2023-05-10T02:05:13.127Z,10.56
2023-05-10T02:07:40.953Z,10.68
2023-05-10T02:10:10.404Z,10.82
2023-05-10T02:12:40.559Z,10.81
2023-05-10T02:15:08.948Z,10.78
2023-05-10T02:17:38.280Z,10.82
2023-05-10T02:20:07.513Z,10.69
2023-05-10T02:22:36.131Z,10.75
2023-05-10T02:25:04.392Z,10.73
2023-05-10T02:27:31.880Z,10.35
2023-05-10T02:29:59.579Z,10.81
2023-05-10T02:32:28.017Z,10.74
2023-05-10T02:34:56.018Z,10.71
2023-05-10T02:37:23.803Z,10.76
2023-05-10T02:39:53.451Z,10.73
2023-05-10T02:42:26.299Z,10.62
2023-05-10T02:44:57.630Z,10.77
2023-05-10T02:47:24.921Z,10.71
2023-05-10T02:49:51.788Z,10.73
2023-05-10T02:52:25.925Z,10.74
2023-05-10T02:54:56.572Z,10.76
2023-05-10T02:57:35.431Z,10.76
2023-05-10T03:00:04.392Z,10.72
2023-05-10T03:02:32.063Z,10.81
2023-05-10T03:04:59.297Z,10.80
2023-05-10T03:07:26.568Z,10.83
2023-05-10T03:09:53.836Z,10.66
2023-05-10T03:12:45.767Z,10.78
2023-05-10T03:15:33.805Z,10.77
2023-05-10T03:18:12.128Z,10.70
2023-05-10T03:21:02.829Z,10.72
2023-05-10T03:23:51.773Z,10.61
2023-05-10T03:26:25.136Z,10.59
2023-05-10T03:28:53.459Z,10.42
2023-05-10T03:31:20.577Z,10.50
2023-05-10T03:33:52.279Z,10.54
2023-05-10T03:36:19.926Z,10.46
2023-05-10T03:38:46.898Z,10.27
2023-05-10T03:41:14.001Z,10.41
2023-05-10T03:43:40.908Z,10.43
2023-05-10T03:46:07.733Z,10.42
2023-05-10T03:48:34.691Z,10.07
2023-05-10T03:51:01.592Z,10.39
2023-05-10T03:53:28.671Z,10.43
2023-05-10T03:55:55.664Z,10.44
2023-05-10T03:58:22.962Z,10.23
2023-05-10T04:00:49.849Z,10.54
2023-05-10T04:03:16.963Z,10.35
2023-05-10T04:05:43.968Z,10.57
2023-05-10T04:08:10.956Z,10.59
2023-05-10T04:10:38.000Z,10.64
2023-05-10T04:13:04.871Z,10.48
2023-05-10T04:15:31.753Z,10.66
2023-05-10T04:17:58.906Z,10.57
2023-05-10T04:20:26.253Z,10.55
2023-05-10T04:22:53.180Z,10.57
2023-05-10T04:25:20.139Z,10.63
2023-05-10T04:27:47.053Z,10.36
2023-05-10T04:30:14.155Z,10.79
2023-05-10T04:32:41.321Z,10.75
2023-05-10T04:35:08.670Z,10.89
2023-05-10T04:37:35.741Z,11.00
2023-05-10T04:40:04.103Z,10.83
2023-05-10T04:42:30.985Z,11.15
2023-05-10T04:44:58.000Z,11.20
2023-05-10T04:47:24.968Z,11.15
2023-05-10T04:49:52.029Z,11.10
2023-05-10T04:52:19.076Z,11.06
2023-05-10T04:54:45.944Z,11.02
2023-05-10T04:57:12.801Z,11.07
2023-05-10T04:59:39.706Z,11.08
2023-05-10T05:02:06.923Z,11.06
2023-05-10T05:04:33.777Z,11.04
2023-05-10T05:07:00.667Z,10.96
2023-05-10T05:09:27.565Z,10.57
2023-05-10T05:11:54.589Z,10.78
2023-05-10T05:14:26.177Z,10.61
2023-05-10T05:16:53.801Z,10.63
2023-05-10T05:19:20.680Z,10.64
2023-05-10T05:21:47.775Z,10.71
2023-05-10T05:24:14.626Z,10.60
2023-05-10T05:26:41.490Z,10.66
2023-05-10T05:29:08.494Z,10.72
2023-05-10T05:31:35.386Z,10.82
2023-05-10T05:34:02.541Z,10.84
2023-05-10T05:36:29.550Z,10.85
2023-05-10T05:38:56.530Z,10.83
2023-05-10T05:41:23.541Z,10.90
2023-05-10T05:43:50.437Z,11.12
2023-05-10T05:46:17.364Z,11.28
2023-05-10T05:48:44.337Z,11.41
2023-05-10T05:51:14.006Z,11.49
2023-05-10T05:53:41.024Z,11.68
2023-05-10T05:56:09.134Z,11.93
2023-05-10T05:58:36.608Z,12.01
2023-05-10T06:01:03.549Z,12.20
2023-05-10T06:03:30.968Z,12.31
2023-05-10T06:05:57.935Z,12.17
2023-05-10T06:08:24.859Z,12.30
2023-05-10T06:10:51.930Z,12.40
2023-05-10T06:13:18.926Z,12.07
2023-05-10T06:15:46.469Z,12.04
2023-05-10T06:18:13.340Z,12.52
2023-05-10T06:20:42.761Z,12.83
2023-05-10T06:23:09.702Z,12.83
2023-05-10T06:25:36.610Z,12.86
2023-05-10T06:28:03.544Z,12.97
2023-05-10T06:30:30.575Z,13.22
2023-05-10T06:32:57.643Z,13.36
2023-05-10T06:35:24.714Z,13.21
2023-05-10T06:37:52.452Z,13.53
2023-05-10T06:40:19.759Z,13.77
2023-05-10T06:42:47.435Z,13.99
2023-05-10T06:45:16.054Z,13.90
2023-05-10T06:47:43.223Z,13.71
2023-05-10T06:50:12.532Z,13.51
2023-05-10T06:52:40.008Z,13.82
2023-05-10T06:55:27.458Z,13.99
2023-05-10T06:57:55.017Z,13.99
2023-05-10T07:00:22.099Z,14.26
2023-05-10T07:02:49.065Z,14.51
2023-05-10T07:05:16.480Z,14.36
2023-05-10T07:07:43.464Z,14.63
2023-05-10T07:10:10.905Z,14.49
2023-05-10T07:12:37.842Z,14.43
2023-05-10T07:15:05.705Z,14.21
2023-05-10T07:17:34.416Z,14.45
2023-05-10T07:20:01.564Z,14.68
2023-05-10T07:22:28.463Z,14.43
2023-05-10T07:24:55.591Z,14.56
2023-05-10T07:27:22.453Z,14.64
2023-05-10T07:29:49.593Z,15.04
2023-05-10T07:32:16.732Z,14.97
2023-05-10T07:34:43.683Z,15.16
2023-05-10T07:37:10.621Z,15.28
2023-05-10T07:39:37.533Z,15.58
2023-05-10T07:42:04.672Z,16.17
2023-05-10T07:44:31.674Z,16.00
2023-05-10T07:46:58.550Z,15.58
2023-05-10T07:49:25.412Z,16.02
2023-05-10T07:51:52.429Z,15.73
2023-05-10T07:54:19.429Z,16.15
2023-05-10T07:56:48.371Z,16.28
2023-05-10T07:59:18.717Z,16.23
2023-05-10T08:01:46.146Z,15.53
2023-05-10T08:04:13.209Z,16.00
2023-05-10T08:06:41.392Z,15.77
2023-05-10T08:09:08.568Z,15.66
2023-05-10T08:11:35.486Z,15.65
2023-05-10T08:14:02.390Z,15.66
2023-05-10T08:16:29.979Z,16.07
2023-05-10T08:18:57.122Z,16.48
2023-05-10T08:21:23.961Z,16.75
2023-05-10T08:23:50.982Z,16.73
2023-05-10T08:26:17.947Z,16.62
2023-05-10T08:28:44.854Z,16.82
2023-05-10T08:31:11.839Z,16.79
2023-05-10T08:33:38.696Z,17.05
2023-05-10T08:36:05.601Z,16.81
2023-05-10T08:38:32.493Z,17.25
2023-05-10T08:41:00.447Z,16.52
2023-05-10T08:43:31.474Z,16.96
2023-05-10T08:46:02.894Z,16.51
2023-05-10T08:48:30.927Z,17.67
2023-05-10T08:50:59.960Z,18.26
2023-05-10T08:53:29.806Z,17.81
2023-05-10T08:55:56.919Z,17.89
2023-05-10T08:58:23.886Z,17.77
2023-05-10T09:00:54.231Z,17.96
2023-05-10T09:03:21.260Z,18.38
2023-05-10T09:05:50.062Z,17.87
2023-05-10T09:08:20.898Z,17.39
2023-05-10T09:10:49.620Z,17.25
2023-05-10T09:13:16.778Z,17.08
2023-05-10T09:15:45.714Z,17.29
2023-05-10T09:18:13.489Z,16.91
2023-05-10T09:20:40.652Z,17.08
2023-05-10T09:23:07.939Z,17.25
2023-05-10T09:25:34.935Z,17.60
2023-05-10T09:28:02.002Z,18.15
2023-05-10T09:30:32.428Z,17.96
2023-05-10T09:33:00.367Z,18.57
2023-05-10T09:35:30.374Z,17.73
2023-05-10T09:38:00.291Z,17.67
2023-05-10T09:40:29.315Z,18.05
2023-05-10T09:43:06.991Z,17.86
2023-05-10T09:45:37.769Z,19.07
2023-05-10T09:48:06.134Z,19.01
2023-05-10T09:50:33.232Z,19.43
2023-05-10T09:53:03.755Z,21.11
2023-05-10T09:55:41.224Z,20.23
2023-05-10T09:58:11.856Z,21.47
2023-05-10T10:00:41.458Z,20.06
2023-05-10T10:03:21.170Z,19.32
2023-05-10T10:05:49.868Z,19.81
2023-05-10T10:08:17.649Z,20.37
2023-05-10T10:10:47.625Z,19.93
2023-05-10T10:13:16.539Z,19.55
2023-05-10T10:15:45.228Z,19.39
2023-05-10T10:18:16.554Z,19.25
2023-05-10T10:20:43.978Z,20.29
2023-05-10T10:23:10.990Z,22.01
2023-05-10T10:25:40.151Z,23.17
2023-05-10T10:28:27.551Z,22.19
2023-05-10T10:30:56.927Z,21.21
2023-05-10T10:34:02.030Z,21.82
2023-05-10T10:36:29.089Z,22.77
2023-05-10T10:39:04.231Z,24.06
2023-05-10T10:41:35.295Z,24.64
2023-05-10T10:44:27.833Z,23.49
2023-05-10T10:47:24.147Z,23.42
2023-05-10T10:49:53.568Z,23.14
2023-05-10T10:52:31.076Z,22.89
2023-05-10T10:55:04.342Z,24.77
2023-05-10T10:57:46.802Z,25.16
2023-05-10T11:00:27.477Z,21.83
2023-05-10T11:02:59.069Z,20.74
2023-05-10T11:05:45.666Z,20.77
2023-05-10T11:08:28.592Z,20.90
2023-05-10T11:11:05.072Z,20.34
2023-05-10T11:13:36.057Z,20.75
2023-05-10T11:16:14.736Z,21.00
2023-05-10T11:18:42.130Z,22.68
2023-05-10T11:21:11.890Z,24.70
2023-05-10T11:23:44.764Z,24.58
2023-05-10T11:26:13.076Z,26.13
2023-05-10T11:28:49.942Z,26.47
2023-05-10T11:31:19.286Z,27.10
2023-05-10T11:33:51.085Z,26.63
2023-05-10T11:36:20.401Z,26.50
2023-05-10T11:38:48.344Z,25.80
2023-05-10T11:41:17.886Z,25.82
2023-05-10T11:43:47.865Z,22.86
2023-05-10T11:46:15.076Z,22.14
2023-05-10T11:48:43.682Z,22.00
2023-05-10T11:51:11.783Z,22.01
2023-05-10T11:53:39.320Z,21.28
2023-05-10T11:56:11.042Z,20.33
2023-05-10T11:58:39.988Z,19.80
2023-05-10T12:01:09.022Z,21.93
2023-05-10T12:03:37.059Z,22.19
2023-05-10T12:06:04.592Z,21.64
2023-05-10T12:08:32.034Z,20.30
2023-05-10T12:11:09.017Z,20.26
2023-05-10T12:13:43.778Z,19.94
2023-05-10T12:16:18.520Z,20.28
2023-05-10T12:18:46.267Z,20.62
2023-05-10T12:21:13.755Z,22.83
2023-05-10T12:23:40.857Z,24.36
2023-05-10T12:26:10.529Z,25.03
2023-05-10T12:28:39.024Z,25.49
2023-05-10T12:31:06.896Z,26.12
2023-05-10T12:33:40.039Z,24.68
2023-05-10T12:36:07.802Z,23.56
2023-05-10T12:38:40.253Z,22.22
2023-05-10T12:41:09.545Z,22.44
2023-05-10T12:43:37.321Z,21.26
2023-05-10T12:46:17.476Z,20.47
2023-05-10T12:48:45.580Z,19.92
2023-05-10T12:51:14.166Z,20.00
2023-05-10T12:53:43.689Z,20.16
2023-05-10T12:56:12.061Z,20.09
2023-05-10T12:58:39.636Z,20.08
2023-05-10T13:01:06.619Z,19.64
2023-05-10T13:03:33.718Z,19.18
2023-05-10T13:06:00.763Z,19.65
2023-05-10T13:08:27.575Z,19.76
2023-05-10T13:10:54.526Z,19.47
2023-05-10T13:13:21.420Z,19.52
2023-05-10T13:15:48.157Z,19.84
2023-05-10T13:18:15.066Z,20.67
2023-05-10T13:20:42.053Z,20.56
2023-05-10T13:23:08.941Z,20.31
2023-05-10T13:25:35.807Z,20.43
2023-05-10T13:28:03.247Z,20.42
2023-05-10T13:30:30.209Z,21.36
2023-05-10T13:32:57.276Z,22.79
2023-05-10T13:35:24.425Z,24.47
2023-05-10T13:37:51.252Z,23.91
2023-05-10T13:40:18.368Z,23.52
2023-05-10T13:42:45.562Z,22.81
2023-05-10T13:45:14.211Z,23.66
2023-05-10T13:47:41.168Z,25.25
2023-05-10T13:50:08.387Z,25.52
2023-05-10T13:52:35.415Z,25.54
2023-05-10T13:55:02.257Z,24.42
2023-05-10T13:57:29.913Z,24.42
2023-05-10T13:59:58.350Z,25.15
2023-05-10T14:02:25.776Z,25.72
2023-05-10T14:04:52.930Z,25.68
2023-05-10T14:07:20.373Z,24.32
2023-05-10T14:09:47.247Z,22.07
2023-05-10T14:12:15.535Z,21.68
2023-05-10T14:14:42.361Z,21.76
2023-05-10T14:17:11.473Z,20.97
2023-05-10T14:19:40.070Z,21.12
2023-05-10T14:22:07.328Z,20.86
2023-05-10T14:24:34.214Z,20.12
2023-05-10T14:27:01.329Z,20.46
2023-05-10T14:29:28.360Z,20.79
2023-05-10T14:31:55.182Z,22.07
2023-05-10T14:34:22.083Z,22.65
2023-05-10T14:36:48.935Z,22.73
2023-05-10T14:39:15.984Z,22.22
2023-05-10T14:41:44.032Z,23.21
2023-05-10T14:44:11.125Z,22.55
2023-05-10T14:46:38.383Z,21.94
2023-05-10T14:49:05.497Z,20.87
2023-05-10T14:51:32.808Z,21.10
2023-05-10T14:53:59.970Z,20.72
2023-05-10T14:56:29.574Z,20.95
2023-05-10T14:58:56.647Z,20.63
2023-05-10T15:01:24.159Z,20.74
2023-05-10T15:03:51.802Z,20.25
2023-05-10T15:06:26.003Z,20.17
2023-05-10T15:08:52.896Z,20.26
2023-05-10T15:11:19.781Z,20.54
2023-05-10T15:13:46.537Z,20.20
2023-05-10T15:16:13.454Z,20.39
2023-05-10T15:18:40.451Z,20.16
2023-05-10T15:21:07.430Z,20.27
2023-05-10T15:23:34.275Z,19.85
2023-05-10T15:26:01.793Z,20.10
2023-05-10T15:28:28.588Z,20.34
2023-05-10T15:30:57.193Z,20.75
2023-05-10T15:33:24.172Z,21.64
2023-05-10T15:35:51.136Z,20.37
2023-05-10T15:38:18.246Z,19.64
2023-05-10T15:40:45.234Z,19.55
2023-05-10T15:43:12.111Z,19.82
2023-05-10T15:45:38.924Z,19.13
2023-05-10T15:48:05.957Z,19.80
2023-05-10T15:50:32.898Z,19.59
2023-05-10T15:52:59.818Z,19.12
2023-05-10T15:55:39.481Z,19.54
2023-05-10T15:58:06.291Z,20.13
2023-05-10T16:00:36.257Z,20.68
2023-05-10T16:03:03.290Z,20.03
2023-05-10T16:05:33.580Z,19.71
2023-05-10T16:08:01.887Z,19.58
2023-05-10T16:10:31.737Z,19.98
2023-05-10T16:12:58.782Z,20.22
2023-05-10T16:15:25.710Z,20.13
2023-05-10T16:17:52.815Z,20.02
2023-05-10T16:20:20.049Z,19.93
2023-05-10T16:22:46.943Z,19.61
2023-05-10T16:25:13.912Z,19.50
2023-05-10T16:27:41.042Z,19.17
2023-05-10T16:30:08.708Z,18.80
2023-05-10T16:32:35.601Z,19.08
2023-05-10T16:35:02.464Z,19.29
2023-05-10T16:37:29.364Z,19.44
2023-05-10T16:39:56.416Z,19.22
2023-05-10T16:42:24.282Z,19.31
2023-05-10T16:44:51.127Z,18.85
2023-05-10T16:47:18.411Z,19.10
2023-05-10T16:49:45.746Z,18.84
2023-05-10T16:52:12.653Z,19.02
2023-05-10T16:54:39.557Z,18.89
2023-05-10T16:57:06.413Z,18.97
2023-05-10T16:59:33.386Z,18.83
2023-05-10T17:02:00.348Z,18.90
2023-05-10T17:04:27.258Z,18.77
2023-05-10T17:06:54.200Z,18.56
2023-05-10T17:09:21.354Z,18.56
2023-05-10T17:11:48.360Z,18.45
2023-05-10T17:14:15.168Z,18.26
2023-05-10T17:16:42.155Z,18.20
2023-05-10T17:19:09.483Z,18.23
2023-05-10T17:21:36.559Z,18.25
2023-05-10T17:24:03.437Z,18.19
2023-05-10T17:26:30.573Z,18.00
2023-05-10T17:28:57.897Z,18.03
2023-05-10T17:31:24.921Z,17.98
2023-05-10T17:33:51.869Z,17.70
2023-05-10T17:36:18.965Z,17.73
2023-05-10T17:38:45.861Z,17.62
2023-05-10T17:41:12.735Z,17.67
2023-05-10T17:43:39.581Z,17.66
2023-05-10T17:46:06.497Z,17.33
2023-05-10T17:48:33.821Z,17.43
2023-05-10T17:51:00.696Z,17.49
2023-05-10T17:53:27.607Z,17.44
2023-05-10T17:55:58.071Z,17.36
2023-05-10T17:58:25.449Z,17.31
2023-05-10T18:00:53.007Z,17.28
2023-05-10T18:03:19.964Z,17.22
2023-05-10T18:05:47.986Z,17.15
2023-05-10T18:08:15.728Z,17.08
2023-05-10T18:10:42.802Z,17.04
2023-05-10T18:13:09.796Z,16.96
2023-05-10T18:15:37.286Z,16.93
2023-05-10T18:18:05.254Z,16.82
2023-05-10T18:20:32.848Z,16.87
2023-05-10T18:23:00.136Z,16.80
2023-05-10T18:25:27.403Z,16.68
2023-05-10T18:27:54.674Z,16.13
2023-05-10T18:30:22.754Z,16.65
2023-05-10T18:32:50.756Z,16.35
2023-05-10T18:35:19.574Z,16.53
2023-05-10T18:37:48.696Z,16.40
2023-05-10T18:40:17.724Z,15.99
2023-05-10T18:42:50.187Z,16.35
2023-05-10T18:45:18.928Z,16.31
2023-05-10T18:47:47.396Z,15.93
2023-05-10T18:50:17.600Z,16.22
2023-05-10T18:52:46.890Z,16.20
2023-05-10T18:55:15.590Z,16.17
2023-05-10T18:57:45.270Z,16.09
2023-05-10T19:00:14.482Z,16.00
2023-05-10T19:02:42.667Z,15.97
2023-05-10T19:05:10.920Z,15.89
2023-05-10T19:07:44.950Z,15.84
2023-05-10T19:10:13.955Z,15.82
2023-05-10T19:12:41.969Z,15.78
2023-05-10T19:15:10.747Z,15.66
2023-05-10T19:17:40.732Z,15.63
2023-05-10T19:20:10.760Z,15.65
2023-05-10T19:22:54.158Z,15.51
2023-05-10T19:25:29.806Z,15.44
2023-05-10T19:27:58.681Z,15.27
2023-05-10T19:30:27.138Z,14.83
2023-05-10T19:32:56.065Z,15.17
2023-05-10T19:35:24.217Z,15.19
2023-05-10T19:37:52.688Z,15.15
2023-05-10T19:40:20.631Z,15.14
2023-05-10T19:42:49.009Z,15.01
2023-05-10T19:45:17.370Z,15.05
2023-05-10T19:47:45.614Z,14.85
2023-05-10T19:50:14.008Z,15.02
2023-05-10T19:52:42.908Z,15.04
2023-05-10T19:55:11.872Z,14.93
2023-05-10T19:57:39.822Z,14.92
2023-05-10T20:00:08.450Z,14.64
2023-05-10T20:02:36.233Z,14.70
2023-05-10T20:05:04.244Z,14.77
2023-05-10T20:07:32.258Z,14.82
2023-05-10T20:09:59.939Z,14.79
2023-05-10T20:12:27.381Z,14.79
2023-05-10T20:14:54.576Z,14.56
2023-05-10T20:17:22.257Z,14.83
2023-05-10T20:19:49.618Z,14.74
2023-05-10T20:22:17.214Z,14.75
2023-05-10T20:24:44.500Z,14.47
2023-05-10T20:27:12.083Z,14.68
2023-05-10T20:29:40.132Z,14.36
2023-05-10T20:32:07.908Z,14.58
2023-05-10T20:34:35.595Z,14.54
2023-05-10T20:37:04.262Z,14.50
2023-05-10T20:39:31.992Z,14.54
2023-05-10T20:42:00.301Z,14.41
2023-05-10T20:44:28.004Z,14.49
2023-05-10T20:46:57.464Z,14.49
2023-05-10T20:49:25.115Z,14.49
2023-05-10T20:51:52.026Z,14.43
2023-05-10T20:54:18.900Z,14.35
2023-05-10T20:56:45.838Z,14.35
2023-05-10T20:59:12.789Z,13.97
2023-05-10T21:01:39.740Z,14.32
2023-05-10T21:04:06.786Z,14.33
2023-05-10T21:06:33.627Z,14.35
2023-05-10T21:09:00.418Z,14.27
2023-05-10T21:11:27.266Z,14.07
2023-05-10T21:13:54.155Z,14.18
2023-05-10T21:16:21.249Z,14.22
2023-05-10T21:18:48.152Z,14.19
2023-05-10T21:21:15.027Z,14.18
2023-05-10T21:23:41.847Z,14.07
2023-05-10T21:26:08.658Z,14.11
2023-05-10T21:28:35.638Z,14.16
2023-05-10T21:31:02.519Z,14.18
2023-05-10T21:33:29.444Z,14.11
2023-05-10T21:35:56.963Z,14.11
2023-05-10T21:38:23.800Z,14.11
2023-05-10T21:40:50.574Z,14.08
2023-05-10T21:43:17.374Z,14.09
2023-05-10T21:45:44.230Z,14.04
2023-05-10T21:48:11.118Z,13.98
2023-05-10T21:50:38.040Z,14.09
2023-05-10T21:53:05.106Z,14.03
2023-05-10T21:55:32.013Z,13.91
2023-05-10T21:57:58.835Z,13.97
2023-05-10T22:00:25.671Z,13.99
2023-05-10T22:02:52.666Z,13.92
2023-05-10T22:05:19.584Z,13.73
2023-05-10T22:07:46.372Z,14.01
2023-05-10T22:10:13.274Z,13.77
2023-05-10T22:12:40.055Z,13.98
2023-05-10T22:15:10.166Z,13.93
2023-05-10T22:17:39.622Z,13.88
2023-05-10T22:20:08.497Z,13.88
2023-05-10T22:22:36.786Z,13.93
2023-05-10T22:25:05.799Z,13.34
2023-05-10T22:27:32.641Z,13.85
2023-05-10T22:29:59.552Z,13.89
2023-05-10T22:32:26.373Z,13.81
2023-05-10T22:34:53.254Z,13.73
2023-05-10T22:37:20.129Z,13.69
2023-05-10T22:39:47.114Z,13.61
2023-05-10T22:42:14.074Z,13.44
2023-05-10T22:44:40.989Z,13.56
2023-05-10T22:47:09.068Z,13.50
2023-05-10T22:49:35.953Z,13.29
2023-05-10T22:52:02.805Z,13.25
2023-05-10T22:54:29.670Z,13.19
2023-05-10T22:56:56.738Z,13.08
2023-05-10T22:59:23.865Z,13.00
2023-05-10T23:01:50.821Z,12.87
2023-05-10T23:04:18.070Z,12.89
2023-05-10T23:06:45.956Z,12.78
2023-05-10T23:09:12.815Z,12.93
2023-05-10T23:11:39.655Z,12.90
2023-05-10T23:14:06.480Z,12.32
2023-05-10T23:16:33.434Z,12.97
2023-05-10T23:19:00.305Z,12.91
2023-05-10T23:21:28.294Z,12.93
2023-05-10T23:23:56.280Z,12.88
2023-05-10T23:26:23.179Z,12.86
2023-05-10T23:28:50.009Z,12.78
2023-05-10T23:31:16.854Z,12.70
2023-05-10T23:33:43.697Z,12.51
2023-05-10T23:36:10.597Z,12.52
2023-05-10T23:38:39.273Z,12.49
2023-05-10T23:41:06.250Z,12.30
2023-05-10T23:43:33.155Z,12.31
2023-05-10T23:46:00.123Z,12.14
2023-05-10T23:48:27.000Z,12.30
2023-05-10T23:50:53.866Z,12.29
2023-05-10T23:53:20.748Z,12.34
2023-05-10T23:55:47.616Z,12.45
2023-05-10T23:58:14.594Z,12.58
